PWSweather.com
Personal Weather Stations
Station Observations
METEOTORRE
Torrevecchia TeatinaIT

Torrevecchia TeatinaIT

Lat: 42.394, Lon: 14.215

Elevation: 688

Station Type: Davis VP2

Latest ConditionsUpdated 5:20:07 AM GMT+01:01 Friday, Dec 14, 2018
Currently Today's Max Today's Min Today's Average
Temperature 41.0°F5.0°C 42.0°F5.6°C 40.8°F4.9°C 41.3°F5.2°C
Dew Point 39.4°F4.1°C 39.5°F4.2°C 38.5°F3.6°C 39.0°F3.9°C
Winds 2.0 mph W3.2 kmh W 6.0 mph -9.7 kmh - - 3.3 mph 5.3 kmh
Wind Gusts 6.0 mph9.7 kmh 9.0 mph14.5 kmh - -
Humidity 94% 94% 89% 92%
Pressure 29.85 in1010.8 mb 29.87 in1011.5 mb 29.85 in1010.8 mb -
Precipitation - 0.12 in3.0 mm - -
Hour Temp Dew Point Humidity Winds Wind Gusts Pressure Precip Precip Rate Daily Precip Total
05:20 AM 41.0°F5.0°C 39.4°F4.1°C 94% 2.0 mph W3.2 kmh W 6.0 mph9.7 kmh 29.85 in1010.8 mb 0.06 in1.5 mm 0.12 in3.0 mm 0.12 in3.0 mm
05:15 AM 41.1°F5.1°C 39.5°F4.2°C 94% 4.0 mph WSW6.4 kmh WSW 6.0 mph9.7 kmh 29.85 in1010.8 mb 0.05 in1.3 mm 0.00 in0.0 mm 0.11 in2.8 mm
05:10 AM 41.0°F5.0°C 39.4°F4.1°C 94% 3.0 mph WSW4.8 kmh WSW 5.0 mph8.0 kmh 29.85 in1010.8 mb 0.05 in1.3 mm 0.00 in0.0 mm 0.10 in2.5 mm
05:05 AM 40.9°F4.9°C 39.3°F4.1°C 94% 3.0 mph WSW4.8 kmh WSW 6.0 mph9.7 kmh 29.85 in1010.8 mb 0.05 in1.3 mm 0.12 in3.0 mm 0.10 in2.5 mm
05:00 AM 40.9°F4.9°C 39.3°F4.1°C 94% Calm Calm 4.0 mph6.4 kmh 29.85 in1010.8 mb 0.04 in1.0 mm 0.00 in0.0 mm 0.09 in2.3 mm
04:55 AM 40.9°F4.9°C 39.3°F4.1°C 94% 3.0 mph WSW4.8 kmh WSW 6.0 mph9.7 kmh 29.85 in1010.8 mb 0.04 in1.0 mm 0.00 in0.0 mm 0.09 in2.3 mm
04:50 AM 40.9°F4.9°C 39.3°F4.1°C 94% 4.0 mph SW6.4 kmh SW 4.0 mph6.4 kmh 29.85 in1010.8 mb 0.04 in1.0 mm 0.00 in0.0 mm 0.09 in2.3 mm
04:45 AM 40.8°F4.9°C 39.2°F4.0°C 94% 1.0 mph SW1.6 kmh SW 5.0 mph8.0 kmh 29.86 in1011.2 mb 0.04 in1.0 mm 0.12 in3.0 mm 0.09 in2.3 mm
04:40 AM 40.8°F4.9°C 38.9°F3.8°C 93% 1.0 mph WSW1.6 kmh WSW 6.0 mph9.7 kmh 29.86 in1011.2 mb 0.03 in0.8 mm 0.00 in0.0 mm 0.08 in2.0 mm
04:35 AM 40.9°F4.9°C 39.0°F3.9°C 93% 4.0 mph WSW6.4 kmh WSW 6.0 mph9.7 kmh 29.86 in1011.2 mb 0.04 in1.0 mm 0.12 in3.0 mm 0.08 in2.0 mm
04:30 AM 40.9°F4.9°C 39.0°F3.9°C 93% 2.0 mph WSW3.2 kmh WSW 6.0 mph9.7 kmh 29.86 in1011.2 mb 0.03 in0.8 mm 0.00 in0.0 mm 0.07 in1.8 mm
04:25 AM 41.0°F5.0°C 39.1°F3.9°C 93% 5.0 mph W8.0 kmh W 9.0 mph14.5 kmh 29.86 in1011.2 mb 0.03 in0.8 mm 0.12 in3.0 mm 0.07 in1.8 mm
04:20 AM 41.0°F5.0°C 39.1°F3.9°C 93% 5.0 mph WSW8.0 kmh WSW 8.0 mph12.9 kmh 29.86 in1011.2 mb 0.02 in0.5 mm 0.00 in0.0 mm 0.06 in1.5 mm
04:15 AM 41.0°F5.0°C 39.1°F3.9°C 93% 4.0 mph WSW6.4 kmh WSW 9.0 mph14.5 kmh 29.86 in1011.2 mb 0.03 in0.8 mm 0.12 in3.0 mm 0.06 in1.5 mm
04:10 AM 41.1°F5.1°C 39.2°F4.0°C 93% 5.0 mph W8.0 kmh W 7.0 mph11.3 kmh 29.86 in1011.2 mb 0.02 in0.5 mm 0.00 in0.0 mm 0.06 in1.5 mm
04:05 AM 41.1°F5.1°C 39.2°F4.0°C 93% 4.0 mph WSW6.4 kmh WSW 7.0 mph11.3 kmh 29.86 in1011.2 mb 0.03 in0.8 mm 0.00 in0.0 mm 0.06 in1.5 mm
04:00 AM 41.1°F5.1°C 39.2°F4.0°C 93% 3.0 mph W4.8 kmh W 6.0 mph9.7 kmh 29.86 in1011.2 mb 0.03 in0.8 mm 0.01 in0.3 mm 0.06 in1.5 mm
03:55 AM 41.2°F5.1°C 39.3°F4.1°C 93% 6.0 mph WSW9.7 kmh WSW 6.0 mph9.7 kmh 29.86 in1011.2 mb 0.02 in0.5 mm 0.00 in0.0 mm 0.05 in1.3 mm
03:50 AM 41.2°F5.1°C 39.3°F4.1°C 93% 3.0 mph WSW4.8 kmh WSW 5.0 mph8.0 kmh 29.86 in1011.2 mb 0.02 in0.5 mm 0.00 in0.0 mm 0.05 in1.3 mm
03:45 AM 41.2°F5.1°C 39.0°F3.9°C 92% 2.0 mph WSW3.2 kmh WSW 5.0 mph8.0 kmh 29.86 in1011.2 mb 0.02 in0.5 mm 0.00 in0.0 mm 0.05 in1.3 mm
03:40 AM 41.2°F5.1°C 39.0°F3.9°C 92% 2.0 mph WSW3.2 kmh WSW 5.0 mph8.0 kmh 29.86 in1011.2 mb 0.02 in0.5 mm 0.00 in0.0 mm 0.05 in1.3 mm
03:35 AM 41.2°F5.1°C 39.0°F3.9°C 92% 3.0 mph SW4.8 kmh SW 6.0 mph9.7 kmh 29.86 in1011.2 mb 0.02 in0.5 mm 0.00 in0.0 mm 0.04 in1.0 mm
03:30 AM 41.2°F5.1°C 39.0°F3.9°C 92% 2.0 mph WSW3.2 kmh WSW 5.0 mph8.0 kmh 29.86 in1011.2 mb 0.02 in0.5 mm 0.00 in0.0 mm 0.04 in1.0 mm
03:25 AM 41.2°F5.1°C 39.0°F3.9°C 92% 2.0 mph WSW3.2 kmh WSW 5.0 mph8.0 kmh 29.86 in1011.2 mb 0.02 in0.5 mm 0.00 in0.0 mm 0.04 in1.0 mm
03:20 AM 41.3°F5.2°C 39.1°F3.9°C 92% 4.0 mph WSW6.4 kmh WSW 6.0 mph9.7 kmh 29.87 in1011.5 mb 0.02 in0.5 mm 0.00 in0.0 mm 0.04 in1.0 mm
03:15 AM 41.3°F5.2°C 39.1°F3.9°C 92% 6.0 mph WSW9.7 kmh WSW 6.0 mph9.7 kmh 29.87 in1011.5 mb 0.02 in0.5 mm 0.00 in0.0 mm 0.03 in0.8 mm
03:10 AM 41.3°F5.2°C 39.1°F3.9°C 92% 2.0 mph WSW3.2 kmh WSW 6.0 mph9.7 kmh 29.87 in1011.5 mb 0.02 in0.5 mm 0.12 in3.0 mm 0.03 in0.8 mm
03:05 AM 41.3°F5.2°C 39.4°F4.1°C 93% 4.0 mph W6.4 kmh W 6.0 mph9.7 kmh 29.87 in1011.5 mb 0.01 in0.3 mm 0.00 in0.0 mm 0.02 in0.5 mm
03:00 AM 41.3°F5.2°C 39.1°F3.9°C 92% 4.0 mph W6.4 kmh W 7.0 mph11.3 kmh 29.87 in1011.5 mb 0.01 in0.3 mm 0.00 in0.0 mm 0.02 in0.5 mm
02:55 AM 41.2°F5.1°C 39.0°F3.9°C 92% 2.0 mph WSW3.2 kmh WSW 7.0 mph11.3 kmh 29.87 in1011.5 mb 0.01 in0.3 mm 0.00 in0.0 mm 0.02 in0.5 mm
02:50 AM 41.2°F5.1°C 39.0°F3.9°C 92% 3.0 mph WSW4.8 kmh WSW 7.0 mph11.3 kmh 29.87 in1011.5 mb 0.01 in0.3 mm 0.00 in0.0 mm 0.02 in0.5 mm
02:45 AM 41.1°F5.1°C 38.9°F3.8°C 92% 3.0 mph WSW4.8 kmh WSW 6.0 mph9.7 kmh 29.87 in1011.5 mb 0.01 in0.3 mm 0.00 in0.0 mm 0.02 in0.5 mm
02:40 AM 41.0°F5.0°C 38.8°F3.8°C 92% 5.0 mph W8.0 kmh W 6.0 mph9.7 kmh 29.87 in1011.5 mb 0.02 in0.5 mm 0.00 in0.0 mm 0.02 in0.5 mm
02:35 AM 41.0°F5.0°C 38.8°F3.8°C 92% 4.0 mph W6.4 kmh W 7.0 mph11.3 kmh 29.87 in1011.5 mb 0.02 in0.5 mm 0.00 in0.0 mm 0.02 in0.5 mm
02:30 AM 41.0°F5.0°C 38.8°F3.8°C 92% 4.0 mph W6.4 kmh W 7.0 mph11.3 kmh 29.87 in1011.5 mb 0.02 in0.5 mm 0.00 in0.0 mm 0.02 in0.5 mm
02:25 AM 40.9°F4.9°C 38.7°F3.7°C 92% 5.0 mph W8.0 kmh W 7.0 mph11.3 kmh 29.87 in1011.5 mb 0.02 in0.5 mm 0.00 in0.0 mm 0.02 in0.5 mm
02:20 AM 40.9°F4.9°C 38.7°F3.7°C 92% 5.0 mph WSW8.0 kmh WSW 6.0 mph9.7 kmh 29.87 in1011.5 mb 0.02 in0.5 mm 0.00 in0.0 mm 0.02 in0.5 mm
02:15 AM 41.0°F5.0°C 38.8°F3.8°C 92% 5.0 mph WSW8.0 kmh WSW 6.0 mph9.7 kmh 29.87 in1011.5 mb 0.02 in0.5 mm 0.00 in0.0 mm 0.02 in0.5 mm
02:10 AM 41.0°F5.0°C 38.8°F3.8°C 92% 4.0 mph W6.4 kmh W 5.0 mph8.0 kmh 29.87 in1011.5 mb 0.02 in0.5 mm 0.00 in0.0 mm 0.02 in0.5 mm
02:05 AM 41.0°F5.0°C 38.8°F3.8°C 92% 4.0 mph W6.4 kmh W 6.0 mph9.7 kmh 29.87 in1011.5 mb 0.02 in0.5 mm 0.00 in0.0 mm 0.02 in0.5 mm
02:00 AM 41.1°F5.1°C 38.6°F3.7°C 91% 2.0 mph WSW3.2 kmh WSW 7.0 mph11.3 kmh 29.87 in1011.5 mb 0.02 in0.5 mm 0.00 in0.0 mm 0.02 in0.5 mm
01:55 AM 41.1°F5.1°C 38.6°F3.7°C 91% 3.0 mph W4.8 kmh W 6.0 mph9.7 kmh 29.87 in1011.5 mb 0.02 in0.5 mm 0.00 in0.0 mm 0.02 in0.5 mm
01:50 AM 41.1°F5.1°C 38.6°F3.7°C 91% 5.0 mph W8.0 kmh W 6.0 mph9.7 kmh 29.87 in1011.5 mb 0.02 in0.5 mm 0.00 in0.0 mm 0.02 in0.5 mm
01:45 AM 41.2°F5.1°C 38.7°F3.7°C 91% 5.0 mph WSW8.0 kmh WSW 5.0 mph8.0 kmh 29.87 in1011.5 mb 0.02 in0.5 mm 0.12 in3.0 mm 0.02 in0.5 mm
01:40 AM 41.3°F5.2°C 38.5°F3.6°C 90% 3.0 mph W4.8 kmh W 6.0 mph9.7 kmh 29.87 in1011.5 mb 0.01 in0.3 mm 0.00 in0.0 mm 0.01 in0.3 mm
01:35 AM 41.4°F5.2°C 38.6°F3.7°C 90% 5.0 mph W8.0 kmh W 7.0 mph11.3 kmh 29.87 in1011.5 mb 0.01 in0.3 mm 0.00 in0.0 mm 0.01 in0.3 mm
01:30 AM 41.4°F5.2°C 38.6°F3.7°C 90% 4.0 mph WSW6.4 kmh WSW 7.0 mph11.3 kmh 29.87 in1011.5 mb 0.01 in0.3 mm 0.00 in0.0 mm 0.01 in0.3 mm
01:25 AM 41.5°F5.3°C 38.7°F3.7°C 90% 6.0 mph WSW9.7 kmh WSW 6.0 mph9.7 kmh 29.87 in1011.5 mb 0.01 in0.3 mm 0.12 in3.0 mm 0.01 in0.3 mm
01:20 AM 41.6°F5.3°C 38.8°F3.8°C 90% 6.0 mph WSW9.7 kmh WSW 8.0 mph12.9 kmh 29.87 in1011.5 mb 0.00 in0.0 mm 0.00 in0.0 mm 0.00 in0.0 mm
01:15 AM 41.7°F5.4°C 38.9°F3.8°C 90% 5.0 mph WSW8.0 kmh WSW 6.0 mph9.7 kmh 29.87 in1011.5 mb 0.00 in0.0 mm 0.00 in0.0 mm 0.00 in0.0 mm
01:10 AM 41.7°F5.4°C 38.9°F3.8°C 90% 3.0 mph WSW4.8 kmh WSW 7.0 mph11.3 kmh 29.87 in1011.5 mb 0.00 in0.0 mm 0.00 in0.0 mm 0.00 in0.0 mm
01:05 AM 41.8°F5.4°C 39.0°F3.9°C 90% 5.0 mph WSW8.0 kmh WSW 5.0 mph8.0 kmh 29.86 in1011.2 mb 0.00 in0.0 mm 0.00 in0.0 mm 0.00 in0.0 mm
01:00 AM 41.8°F5.4°C 39.0°F3.9°C 90% 3.0 mph SW4.8 kmh SW 6.0 mph9.7 kmh 29.86 in1011.2 mb 0.00 in0.0 mm 0.00 in0.0 mm 0.00 in0.0 mm
12:55 AM 41.8°F5.4°C 39.0°F3.9°C 90% 2.0 mph WSW3.2 kmh WSW 5.0 mph8.0 kmh 29.86 in1011.2 mb 0.00 in0.0 mm 0.00 in0.0 mm 0.00 in0.0 mm
12:50 AM 41.8°F5.4°C 39.0°F3.9°C 90% 3.0 mph WSW4.8 kmh WSW 4.0 mph6.4 kmh 29.86 in1011.2 mb 0.00 in0.0 mm 0.00 in0.0 mm 0.00 in0.0 mm
12:45 AM 41.8°F5.4°C 39.0°F3.9°C 90% 1.0 mph WSW1.6 kmh WSW 4.0 mph6.4 kmh 29.87 in1011.5 mb 0.00 in0.0 mm 0.00 in0.0 mm 0.00 in0.0 mm
12:40 AM 41.8°F5.4°C 39.0°F3.9°C 90% 1.0 mph W1.6 kmh W 4.0 mph6.4 kmh 29.86 in1011.2 mb 0.00 in0.0 mm 0.00 in0.0 mm 0.00 in0.0 mm
12:35 AM 41.8°F5.4°C 39.0°F3.9°C 90% Calm Calm 4.0 mph6.4 kmh 29.86 in1011.2 mb 0.00 in0.0 mm 0.00 in0.0 mm 0.00 in0.0 mm
12:30 AM 41.8°F5.4°C 39.0°F3.9°C 90% 4.0 mph WNW6.4 kmh WNW 7.0 mph11.3 kmh 29.86 in1011.2 mb 0.00 in0.0 mm 0.00 in0.0 mm 0.00 in0.0 mm
12:25 AM 41.8°F5.4°C 39.0°F3.9°C 90% 4.0 mph W6.4 kmh W 6.0 mph9.7 kmh 29.87 in1011.5 mb 0.00 in0.0 mm 0.00 in0.0 mm 0.00 in0.0 mm
12:20 AM 41.9°F5.5°C 39.1°F3.9°C 90% 4.0 mph W6.4 kmh W 4.0 mph6.4 kmh 29.87 in1011.5 mb 0.00 in0.0 mm 0.00 in0.0 mm 0.00 in0.0 mm
12:15 AM 42.0°F5.6°C 39.2°F4.0°C 90% 2.0 mph W3.2 kmh W 4.0 mph6.4 kmh 29.87 in1011.5 mb 0.00 in0.0 mm 0.00 in0.0 mm 0.00 in0.0 mm
12:10 AM 41.9°F5.5°C 39.1°F3.9°C 90% Calm Calm 4.0 mph6.4 kmh 29.87 in1011.5 mb 0.00 in0.0 mm 0.00 in0.0 mm 0.00 in0.0 mm
12:05 AM 41.9°F5.5°C 39.1°F3.9°C 90% 2.0 mph WNW3.2 kmh WNW 4.0 mph6.4 kmh 29.87 in1011.5 mb 0.00 in0.0 mm 0.00 in0.0 mm 0.00 in0.0 mm
12:00 AM 42.0°F5.6°C 38.9°F3.8°C 89% Calm Calm -- 29.87 in1011.5 mb 0.00 in0.0 mm 0.00 in0.0 mm 0.00 in0.0 mm